sensor_id;sensor_type;location;lat;lon;timestamp;P1;durP1;ratioP1;P2;durP2;ratioP2
69573;SDS011;62840;52.366;5.980;2023-07-29T00:01:08;4.80;;;2.40;;
69573;SDS011;62840;52.366;5.980;2023-07-29T00:03:33;6.13;;;2.60;;
69573;SDS011;62840;52.366;5.980;2023-07-29T00:05:59;5.20;;;2.83;;
69573;SDS011;62840;52.366;5.980;2023-07-29T00:08:27;5.50;;;2.70;;
69573;SDS011;62840;52.366;5.980;2023-07-29T00:10:53;4.70;;;2.58;;
69573;SDS011;62840;52.366;5.980;2023-07-29T00:13:19;4.68;;;2.55;;
69573;SDS011;62840;52.366;5.980;2023-07-29T00:15:45;4.72;;;2.53;;
69573;SDS011;62840;52.366;5.980;2023-07-29T00:18:10;5.00;;;2.67;;
69573;SDS011;62840;52.366;5.980;2023-07-29T00:20:36;6.03;;;2.42;;
69573;SDS011;62840;52.366;5.980;2023-07-29T00:23:02;4.95;;;3.03;;
69573;SDS011;62840;52.366;5.980;2023-07-29T00:25:30;5.70;;;2.80;;
69573;SDS011;62840;52.366;5.980;2023-07-29T00:27:56;6.18;;;2.42;;
69573;SDS011;62840;52.366;5.980;2023-07-29T00:30:23;6.15;;;2.63;;
69573;SDS011;62840;52.366;5.980;2023-07-29T00:32:49;5.93;;;3.03;;
69573;SDS011;62840;52.366;5.980;2023-07-29T00:35:15;5.13;;;2.63;;
69573;SDS011;62840;52.366;5.980;2023-07-29T00:37:41;5.88;;;2.50;;
69573;SDS011;62840;52.366;5.980;2023-07-29T00:40:09;5.63;;;2.83;;
69573;SDS011;62840;52.366;5.980;2023-07-29T00:42:46;5.50;;;2.47;;
69573;SDS011;62840;52.366;5.980;2023-07-29T00:45:13;4.70;;;2.63;;
69573;SDS011;62840;52.366;5.980;2023-07-29T00:47:38;5.00;;;2.50;;
69573;SDS011;62840;52.366;5.980;2023-07-29T00:50:05;5.10;;;2.40;;
69573;SDS011;62840;52.366;5.980;2023-07-29T00:52:32;5.07;;;2.58;;
69573;SDS011;62840;52.366;5.980;2023-07-29T00:54:58;5.55;;;2.38;;
69573;SDS011;62840;52.366;5.980;2023-07-29T00:57:24;5.30;;;2.40;;
69573;SDS011;62840;52.366;5.980;2023-07-29T00:59:53;6.05;;;2.70;;
69573;SDS011;62840;52.366;5.980;2023-07-29T01:02:19;5.07;;;2.50;;
69573;SDS011;62840;52.366;5.980;2023-07-29T01:04:45;4.68;;;2.60;;
69573;SDS011;62840;52.366;5.980;2023-07-29T01:07:12;5.60;;;2.43;;
69573;SDS011;62840;52.366;5.980;2023-07-29T01:09:50;4.40;;;2.00;;
69573;SDS011;62840;52.366;5.980;2023-07-29T01:12:27;4.57;;;2.13;;
69573;SDS011;62840;52.366;5.980;2023-07-29T01:15:10;4.50;;;2.28;;
69573;SDS011;62840;52.366;5.980;2023-07-29T01:17:43;6.63;;;2.63;;
69573;SDS011;62840;52.366;5.980;2023-07-29T01:20:15;4.50;;;2.17;;
69573;SDS011;62840;52.366;5.980;2023-07-29T01:22:42;3.92;;;2.20;;
69573;SDS011;62840;52.366;5.980;2023-07-29T01:25:11;5.07;;;2.30;;
69573;SDS011;62840;52.366;5.980;2023-07-29T01:27:37;5.50;;;2.20;;
69573;SDS011;62840;52.366;5.980;2023-07-29T01:30:03;4.40;;;1.90;;
69573;SDS011;62840;52.366;5.980;2023-07-29T01:32:33;4.93;;;2.00;;
69573;SDS011;62840;52.366;5.980;2023-07-29T01:35:10;5.82;;;2.00;;
69573;SDS011;62840;52.366;5.980;2023-07-29T01:37:44;4.38;;;2.10;;
69573;SDS011;62840;52.366;5.980;2023-07-29T01:40:20;4.32;;;1.85;;
69573;SDS011;62840;52.366;5.980;2023-07-29T01:42:51;4.53;;;2.10;;
69573;SDS011;62840;52.366;5.980;2023-07-29T01:45:18;4.25;;;2.15;;
69573;SDS011;62840;52.366;5.980;2023-07-29T01:47:44;4.30;;;2.00;;
69573;SDS011;62840;52.366;5.980;2023-07-29T01:50:10;4.13;;;2.00;;
69573;SDS011;62840;52.366;5.980;2023-07-29T01:52:36;4.95;;;2.22;;
69573;SDS011;62840;52.366;5.980;2023-07-29T01:55:02;4.47;;;2.20;;
69573;SDS011;62840;52.366;5.980;2023-07-29T01:57:31;4.77;;;1.77;;
69573;SDS011;62840;52.366;5.980;2023-07-29T01:59:57;4.18;;;1.92;;
69573;SDS011;62840;52.366;5.980;2023-07-29T02:02:22;4.03;;;2.00;;
69573;SDS011;62840;52.366;5.980;2023-07-29T02:04:48;4.10;;;1.90;;
69573;SDS011;62840;52.366;5.980;2023-07-29T02:07:14;4.50;;;2.03;;
69573;SDS011;62840;52.366;5.980;2023-07-29T02:09:39;4.07;;;1.80;;
69573;SDS011;62840;52.366;5.980;2023-07-29T02:12:06;3.40;;;1.80;;
69573;SDS011;62840;52.366;5.980;2023-07-29T02:14:35;4.00;;;1.70;;
69573;SDS011;62840;52.366;5.980;2023-07-29T02:17:00;4.03;;;1.73;;
69573;SDS011;62840;52.366;5.980;2023-07-29T02:19:26;4.43;;;1.67;;
69573;SDS011;62840;52.366;5.980;2023-07-29T02:21:52;4.90;;;1.83;;
69573;SDS011;62840;52.366;5.980;2023-07-29T02:24:18;3.80;;;1.80;;
69573;SDS011;62840;52.366;5.980;2023-07-29T02:26:43;3.72;;;1.67;;
69573;SDS011;62840;52.366;5.980;2023-07-29T02:29:09;4.60;;;1.93;;
69573;SDS011;62840;52.366;5.980;2023-07-29T02:31:37;3.83;;;1.90;;
69573;SDS011;62840;52.366;5.980;2023-07-29T02:34:03;3.87;;;1.60;;
69573;SDS011;62840;52.366;5.980;2023-07-29T02:36:29;4.32;;;1.75;;
69573;SDS011;62840;52.366;5.980;2023-07-29T02:38:55;5.15;;;1.60;;
69573;SDS011;62840;52.366;5.980;2023-07-29T02:41:20;4.47;;;1.55;;
69573;SDS011;62840;52.366;5.980;2023-07-29T02:43:48;4.10;;;1.70;;
69573;SDS011;62840;52.366;5.980;2023-07-29T02:46:15;5.00;;;2.00;;
69573;SDS011;62840;52.366;5.980;2023-07-29T02:48:44;3.92;;;1.83;;
69573;SDS011;62840;52.366;5.980;2023-07-29T02:51:10;3.70;;;1.70;;
69573;SDS011;62840;52.366;5.980;2023-07-29T02:53:36;4.63;;;1.60;;
69573;SDS011;62840;52.366;5.980;2023-07-29T02:56:01;3.67;;;1.80;;
69573;SDS011;62840;52.366;5.980;2023-07-29T02:58:27;6.68;;;1.65;;
69573;SDS011;62840;52.366;5.980;2023-07-29T03:00:53;4.63;;;1.67;;
69573;SDS011;62840;52.366;5.980;2023-07-29T03:03:19;5.10;;;1.55;;
69573;SDS011;62840;52.366;5.980;2023-07-29T03:05:47;4.17;;;1.60;;
69573;SDS011;62840;52.366;5.980;2023-07-29T03:08:13;3.58;;;1.70;;
69573;SDS011;62840;52.366;5.980;2023-07-29T03:10:38;3.30;;;1.60;;
69573;SDS011;62840;52.366;5.980;2023-07-29T03:13:04;4.57;;;1.30;;
69573;SDS011;62840;52.366;5.980;2023-07-29T03:15:30;6.03;;;1.63;;
69573;SDS011;62840;52.366;5.980;2023-07-29T03:17:56;4.47;;;1.75;;
69573;SDS011;62840;52.366;5.980;2023-07-29T03:20:22;4.20;;;1.60;;
69573;SDS011;62840;52.366;5.980;2023-07-29T03:22:50;4.00;;;1.50;;
69573;SDS011;62840;52.366;5.980;2023-07-29T03:25:16;3.60;;;1.40;;
69573;SDS011;62840;52.366;5.980;2023-07-29T03:27:42;3.75;;;1.52;;
69573;SDS011;62840;52.366;5.980;2023-07-29T03:30:08;4.25;;;1.70;;
69573;SDS011;62840;52.366;5.980;2023-07-29T03:32:34;3.83;;;1.60;;
69573;SDS011;62840;52.366;5.980;2023-07-29T03:35:00;5.73;;;2.10;;
69573;SDS011;62840;52.366;5.980;2023-07-29T03:37:26;3.95;;;1.48;;
69573;SDS011;62840;52.366;5.980;2023-07-29T03:39:54;3.90;;;1.80;;
69573;SDS011;62840;52.366;5.980;2023-07-29T03:42:20;3.92;;;1.40;;
69573;SDS011;62840;52.366;5.980;2023-07-29T03:44:46;5.00;;;1.63;;
69573;SDS011;62840;52.366;5.980;2023-07-29T03:47:11;5.60;;;1.55;;
69573;SDS011;62840;52.366;5.980;2023-07-29T03:49:37;5.53;;;1.88;;
69573;SDS011;62840;52.366;5.980;2023-07-29T03:52:03;6.18;;;1.88;;
69573;SDS011;62840;52.366;5.980;2023-07-29T03:54:30;4.85;;;1.60;;
69573;SDS011;62840;52.366;5.980;2023-07-29T03:56:58;5.50;;;2.00;;
69573;SDS011;62840;52.366;5.980;2023-07-29T03:59:24;5.93;;;1.70;;
69573;SDS011;62840;52.366;5.980;2023-07-29T04:01:50;6.57;;;2.13;;
69573;SDS011;62840;52.366;5.980;2023-07-29T04:04:15;5.00;;;1.77;;
69573;SDS011;62840;52.366;5.980;2023-07-29T04:06:41;4.97;;;1.98;;
69573;SDS011;62840;52.366;5.980;2023-07-29T04:09:07;6.82;;;2.20;;
69573;SDS011;62840;52.366;5.980;2023-07-29T04:11:33;6.13;;;2.13;;
69573;SDS011;62840;52.366;5.980;2023-07-29T04:14:01;6.20;;;2.47;;
69573;SDS011;62840;52.366;5.980;2023-07-29T04:16:27;5.55;;;1.90;;
69573;SDS011;62840;52.366;5.980;2023-07-29T04:18:53;7.38;;;2.17;;
69573;SDS011;62840;52.366;5.980;2023-07-29T04:21:18;5.40;;;2.13;;
69573;SDS011;62840;52.366;5.980;2023-07-29T04:23:44;5.55;;;2.30;;
69573;SDS011;62840;52.366;5.980;2023-07-29T04:26:10;6.68;;;2.85;;
69573;SDS011;62840;52.366;5.980;2023-07-29T04:28:36;4.80;;;2.22;;
69573;SDS011;62840;52.366;5.980;2023-07-29T04:31:04;7.23;;;2.27;;
69573;SDS011;62840;52.366;5.980;2023-07-29T04:33:30;6.25;;;2.50;;
69573;SDS011;62840;52.366;5.980;2023-07-29T04:35:55;7.40;;;2.42;;
69573;SDS011;62840;52.366;5.980;2023-07-29T04:38:21;5.20;;;2.20;;
69573;SDS011;62840;52.366;5.980;2023-07-29T04:40:48;4.97;;;2.35;;
69573;SDS011;62840;52.366;5.980;2023-07-29T04:43:14;5.97;;;2.40;;
69573;SDS011;62840;52.366;5.980;2023-07-29T04:45:42;7.05;;;2.10;;
69573;SDS011;62840;52.366;5.980;2023-07-29T04:48:10;5.97;;;2.60;;
69573;SDS011;62840;52.366;5.980;2023-07-29T04:50:36;7.18;;;3.00;;
69573;SDS011;62840;52.366;5.980;2023-07-29T04:53:02;5.93;;;2.75;;
69573;SDS011;62840;52.366;5.980;2023-07-29T04:55:28;6.20;;;2.53;;
69573;SDS011;62840;52.366;5.980;2023-07-29T04:57:53;6.43;;;2.67;;
69573;SDS011;62840;52.366;5.980;2023-07-29T05:00:19;5.13;;;2.15;;
69573;SDS011;62840;52.366;5.980;2023-07-29T05:02:45;6.47;;;2.80;;
69573;SDS011;62840;52.366;5.980;2023-07-29T05:05:13;6.70;;;2.30;;
69573;SDS011;62840;52.366;5.980;2023-07-29T05:07:39;7.13;;;2.53;;
69573;SDS011;62840;52.366;5.980;2023-07-29T05:10:06;6.43;;;2.30;;
69573;SDS011;62840;52.366;5.980;2023-07-29T05:12:33;5.50;;;2.67;;
69573;SDS011;62840;52.366;5.980;2023-07-29T05:14:59;6.53;;;2.57;;
69573;SDS011;62840;52.366;5.980;2023-07-29T05:17:24;7.90;;;3.00;;
69573;SDS011;62840;52.366;5.980;2023-07-29T05:19:50;5.93;;;2.70;;
69573;SDS011;62840;52.366;5.980;2023-07-29T05:22:18;7.93;;;2.78;;
69573;SDS011;62840;52.366;5.980;2023-07-29T05:24:44;7.25;;;3.08;;
69573;SDS011;62840;52.366;5.980;2023-07-29T05:27:10;5.83;;;2.67;;
69573;SDS011;62840;52.366;5.980;2023-07-29T05:29:36;6.68;;;2.60;;
69573;SDS011;62840;52.366;5.980;2023-07-29T05:32:01;5.83;;;2.53;;
69573;SDS011;62840;52.366;5.980;2023-07-29T05:34:28;4.75;;;2.22;;
69573;SDS011;62840;52.366;5.980;2023-07-29T05:36:53;5.72;;;2.83;;
69573;SDS011;62840;52.366;5.980;2023-07-29T05:39:22;5.53;;;2.60;;
69573;SDS011;62840;52.366;5.980;2023-07-29T05:41:47;5.38;;;2.38;;
69573;SDS011;62840;52.366;5.980;2023-07-29T05:44:13;6.80;;;2.13;;
69573;SDS011;62840;52.366;5.980;2023-07-29T05:46:39;6.07;;;2.58;;
69573;SDS011;62840;52.366;5.980;2023-07-29T05:49:04;8.37;;;2.73;;
69573;SDS011;62840;52.366;5.980;2023-07-29T05:51:30;5.57;;;2.47;;
69573;SDS011;62840;52.366;5.980;2023-07-29T05:53:56;6.27;;;2.70;;
69573;SDS011;62840;52.366;5.980;2023-07-29T05:56:24;5.72;;;2.40;;
69573;SDS011;62840;52.366;5.980;2023-07-29T05:58:50;5.68;;;2.20;;
69573;SDS011;62840;52.366;5.980;2023-07-29T06:01:16;5.60;;;2.30;;
69573;SDS011;62840;52.366;5.980;2023-07-29T06:03:41;5.65;;;2.28;;
69573;SDS011;62840;52.366;5.980;2023-07-29T06:06:08;5.47;;;2.27;;
69573;SDS011;62840;52.366;5.980;2023-07-29T06:08:34;4.72;;;2.00;;
69573;SDS011;62840;52.366;5.980;2023-07-29T06:10:59;4.77;;;1.80;;
69573;SDS011;62840;52.366;5.980;2023-07-29T06:13:28;5.45;;;1.98;;
69573;SDS011;62840;52.366;5.980;2023-07-29T06:15:53;3.97;;;1.65;;
69573;SDS011;62840;52.366;5.980;2023-07-29T06:18:19;5.03;;;2.10;;
69573;SDS011;62840;52.366;5.980;2023-07-29T06:20:45;5.75;;;2.13;;
69573;SDS011;62840;52.366;5.980;2023-07-29T06:23:11;6.57;;;1.67;;
69573;SDS011;62840;52.366;5.980;2023-07-29T06:25:36;6.22;;;1.90;;
69573;SDS011;62840;52.366;5.980;2023-07-29T06:28:02;7.50;;;1.97;;
69573;SDS011;62840;52.366;5.980;2023-07-29T06:30:31;5.55;;;2.15;;
69573;SDS011;62840;52.366;5.980;2023-07-29T06:32:56;5.03;;;1.85;;
69573;SDS011;62840;52.366;5.980;2023-07-29T06:35:22;4.43;;;1.87;;
69573;SDS011;62840;52.366;5.980;2023-07-29T06:37:48;3.97;;;1.55;;
69573;SDS011;62840;52.366;5.980;2023-07-29T06:40:14;4.47;;;2.25;;
69573;SDS011;62840;52.366;5.980;2023-07-29T06:42:40;4.20;;;1.73;;
69573;SDS011;62840;52.366;5.980;2023-07-29T06:45:06;5.20;;;2.22;;
69573;SDS011;62840;52.366;5.980;2023-07-29T06:47:36;8.55;;;2.55;;
69573;SDS011;62840;52.366;5.980;2023-07-29T06:50:02;4.43;;;2.08;;
69573;SDS011;62840;52.366;5.980;2023-07-29T06:52:28;5.00;;;2.50;;
69573;SDS011;62840;52.366;5.980;2023-07-29T06:54:54;7.95;;;2.40;;
69573;SDS011;62840;52.366;5.980;2023-07-29T06:57:19;6.10;;;2.40;;
69573;SDS011;62840;52.366;5.980;2023-07-29T06:59:45;6.13;;;2.42;;
69573;SDS011;62840;52.366;5.980;2023-07-29T07:02:11;4.70;;;1.98;;
69573;SDS011;62840;52.366;5.980;2023-07-29T07:04:39;5.33;;;2.33;;
69573;SDS011;62840;52.366;5.980;2023-07-29T07:07:05;5.32;;;1.92;;
69573;SDS011;62840;52.366;5.980;2023-07-29T07:09:31;5.20;;;1.90;;
69573;SDS011;62840;52.366;5.980;2023-07-29T07:11:57;5.57;;;2.40;;
69573;SDS011;62840;52.366;5.980;2023-07-29T07:14:22;5.07;;;1.75;;
69573;SDS011;62840;52.366;5.980;2023-07-29T07:16:48;5.80;;;1.77;;
69573;SDS011;62840;52.366;5.980;2023-07-29T07:19:14;7.80;;;2.42;;
69573;SDS011;62840;52.366;5.980;2023-07-29T07:21:42;3.70;;;1.80;;
69573;SDS011;62840;52.366;5.980;2023-07-29T07:24:08;5.13;;;1.80;;
69573;SDS011;62840;52.366;5.980;2023-07-29T07:26:34;5.53;;;2.20;;
69573;SDS011;62840;52.366;5.980;2023-07-29T07:28:59;6.50;;;2.33;;
69573;SDS011;62840;52.366;5.980;2023-07-29T07:31:25;6.03;;;2.00;;
69573;SDS011;62840;52.366;5.980;2023-07-29T07:33:51;5.10;;;2.00;;
69573;SDS011;62840;52.366;5.980;2023-07-29T07:36:16;4.97;;;2.07;;
69573;SDS011;62840;52.366;5.980;2023-07-29T07:38:45;7.82;;;1.88;;
69573;SDS011;62840;52.366;5.980;2023-07-29T07:41:11;4.97;;;1.95;;
69573;SDS011;62840;52.366;5.980;2023-07-29T07:43:36;4.82;;;2.22;;
69573;SDS011;62840;52.366;5.980;2023-07-29T07:46:02;5.27;;;1.93;;
69573;SDS011;62840;52.366;5.980;2023-07-29T07:48:29;4.78;;;1.98;;
69573;SDS011;62840;52.366;5.980;2023-07-29T07:50:55;5.73;;;2.40;;
69573;SDS011;62840;52.366;5.980;2023-07-29T07:53:21;5.05;;;2.13;;
69573;SDS011;62840;52.366;5.980;2023-07-29T07:55:49;4.47;;;2.60;;
69573;SDS011;62840;52.366;5.980;2023-07-29T07:58:15;4.47;;;2.58;;
69573;SDS011;62840;52.366;5.980;2023-07-29T08:00:41;6.13;;;3.38;;
69573;SDS011;62840;52.366;5.980;2023-07-29T08:03:07;5.20;;;2.92;;
69573;SDS011;62840;52.366;5.980;2023-07-29T08:05:32;5.57;;;3.25;;
69573;SDS011;62840;52.366;5.980;2023-07-29T08:07:58;5.45;;;3.13;;
69573;SDS011;62840;52.366;5.980;2023-07-29T08:10:24;5.40;;;3.33;;
69573;SDS011;62840;52.366;5.980;2023-07-29T08:12:52;5.90;;;3.40;;
69573;SDS011;62840;52.366;5.980;2023-07-29T08:15:18;6.10;;;3.63;;
69573;SDS011;62840;52.366;5.980;2023-07-29T08:17:45;6.25;;;3.83;;
69573;SDS011;62840;52.366;5.980;2023-07-29T08:20:11;6.38;;;3.35;;
69573;SDS011;62840;52.366;5.980;2023-07-29T08:22:36;6.70;;;3.77;;
69573;SDS011;62840;52.366;5.980;2023-07-29T08:25:02;6.18;;;3.67;;
69573;SDS011;62840;52.366;5.980;2023-07-29T08:27:29;6.20;;;3.83;;
69573;SDS011;62840;52.366;5.980;2023-07-29T08:29:57;7.10;;;4.28;;
69573;SDS011;62840;52.366;5.980;2023-07-29T08:32:23;6.18;;;4.10;;
69573;SDS011;62840;52.366;5.980;2023-07-29T08:34:48;6.57;;;4.37;;
69573;SDS011;62840;52.366;5.980;2023-07-29T08:37:14;5.57;;;4.00;;
69573;SDS011;62840;52.366;5.980;2023-07-29T08:39:40;5.67;;;3.90;;
69573;SDS011;62840;52.366;5.980;2023-07-29T08:42:07;6.40;;;3.38;;
69573;SDS011;62840;52.366;5.980;2023-07-29T08:44:39;7.80;;;3.95;;
69573;SDS011;62840;52.366;5.980;2023-07-29T08:47:09;5.30;;;3.60;;
69573;SDS011;62840;52.366;5.980;2023-07-29T08:49:36;5.80;;;3.65;;
69573;SDS011;62840;52.366;5.980;2023-07-29T08:52:04;5.88;;;3.85;;
69573;SDS011;62840;52.366;5.980;2023-07-29T08:54:31;5.50;;;3.40;;
69573;SDS011;62840;52.366;5.980;2023-07-29T08:56:57;6.70;;;4.07;;
69573;SDS011;62840;52.366;5.980;2023-07-29T08:59:24;6.55;;;3.70;;
69573;SDS011;62840;52.366;5.980;2023-07-29T09:01:53;7.00;;;4.15;;
69573;SDS011;62840;52.366;5.980;2023-07-29T09:04:22;7.43;;;4.38;;
69573;SDS011;62840;52.366;5.980;2023-07-29T09:06:48;6.38;;;4.30;;
69573;SDS011;62840;52.366;5.980;2023-07-29T09:09:16;6.78;;;4.43;;
69573;SDS011;62840;52.366;5.980;2023-07-29T09:11:42;7.38;;;4.47;;
69573;SDS011;62840;52.366;5.980;2023-07-29T09:14:08;6.90;;;4.38;;
69573;SDS011;62840;52.366;5.980;2023-07-29T09:16:35;7.68;;;4.68;;
69573;SDS011;62840;52.366;5.980;2023-07-29T09:19:02;6.15;;;3.90;;
69573;SDS011;62840;52.366;5.980;2023-07-29T09:21:31;9.93;;;4.37;;
69573;SDS011;62840;52.366;5.980;2023-07-29T09:23:57;6.63;;;4.38;;
69573;SDS011;62840;52.366;5.980;2023-07-29T09:26:28;6.43;;;4.70;;
69573;SDS011;62840;52.366;5.980;2023-07-29T09:28:54;5.97;;;4.55;;
69573;SDS011;62840;52.366;5.980;2023-07-29T09:31:22;7.40;;;4.30;;
69573;SDS011;62840;52.366;5.980;2023-07-29T09:33:49;8.50;;;4.82;;
69573;SDS011;62840;52.366;5.980;2023-07-29T09:36:20;6.07;;;4.50;;
69573;SDS011;62840;52.366;5.980;2023-07-29T09:38:50;5.88;;;4.07;;
69573;SDS011;62840;52.366;5.980;2023-07-29T09:41:18;6.97;;;4.20;;
69573;SDS011;62840;52.366;5.980;2023-07-29T09:43:44;6.15;;;3.90;;
69573;SDS011;62840;52.366;5.980;2023-07-29T09:46:09;7.87;;;4.10;;
69573;SDS011;62840;52.366;5.980;2023-07-29T09:48:36;6.60;;;4.20;;
69573;SDS011;62840;52.366;5.980;2023-07-29T09:51:10;6.03;;;3.92;;
69573;SDS011;62840;52.366;5.980;2023-07-29T09:53:38;7.18;;;3.97;;
69573;SDS011;62840;52.366;5.980;2023-07-29T09:56:09;5.90;;;3.60;;
69573;SDS011;62840;52.366;5.980;2023-07-29T09:58:35;5.32;;;3.50;;
69573;SDS011;62840;52.366;5.980;2023-07-29T10:01:01;5.53;;;3.60;;
69573;SDS011;62840;52.366;5.980;2023-07-29T10:03:27;4.97;;;3.70;;
69573;SDS011;62840;52.366;5.980;2023-07-29T10:05:55;5.83;;;3.87;;
69573;SDS011;62840;52.366;5.980;2023-07-29T10:08:21;5.50;;;3.60;;
69573;SDS011;62840;52.366;5.980;2023-07-29T10:10:50;6.03;;;3.70;;
69573;SDS011;62840;52.366;5.980;2023-07-29T10:13:19;5.70;;;3.90;;
69573;SDS011;62840;52.366;5.980;2023-07-29T10:15:45;6.07;;;3.60;;
69573;SDS011;62840;52.366;5.980;2023-07-29T10:18:13;5.40;;;3.42;;
69573;SDS011;62840;52.366;5.980;2023-07-29T10:20:41;6.05;;;3.72;;
69573;SDS011;62840;52.366;5.980;2023-07-29T10:23:09;4.85;;;3.40;;
69573;SDS011;62840;52.366;5.980;2023-07-29T10:25:37;6.18;;;4.03;;
69573;SDS011;62840;52.366;5.980;2023-07-29T10:28:08;6.23;;;3.70;;
69573;SDS011;62840;52.366;5.980;2023-07-29T10:30:42;5.47;;;3.28;;
69573;SDS011;62840;52.366;5.980;2023-07-29T10:33:09;5.20;;;3.53;;
69573;SDS011;62840;52.366;5.980;2023-07-29T10:35:35;5.85;;;3.08;;
69573;SDS011;62840;52.366;5.980;2023-07-29T10:38:03;5.30;;;2.90;;
69573;SDS011;62840;52.366;5.980;2023-07-29T10:40:43;4.80;;;2.70;;
69573;SDS011;62840;52.366;5.980;2023-07-29T10:43:11;4.80;;;2.65;;
69573;SDS011;62840;52.366;5.980;2023-07-29T10:45:39;5.80;;;2.90;;
69573;SDS011;62840;52.366;5.980;2023-07-29T10:48:10;4.15;;;2.50;;
69573;SDS011;62840;52.366;5.980;2023-07-29T10:50:37;6.22;;;2.80;;
69573;SDS011;62840;52.366;5.980;2023-07-29T10:53:03;5.20;;;2.70;;
69573;SDS011;62840;52.366;5.980;2023-07-29T10:55:29;5.25;;;3.00;;
69573;SDS011;62840;52.366;5.980;2023-07-29T10:58:04;5.25;;;2.90;;
69573;SDS011;62840;52.366;5.980;2023-07-29T11:00:33;4.30;;;2.60;;
69573;SDS011;62840;52.366;5.980;2023-07-29T11:03:03;4.30;;;2.63;;
69573;SDS011;62840;52.366;5.980;2023-07-29T11:05:44;4.37;;;2.80;;
69573;SDS011;62840;52.366;5.980;2023-07-29T11:08:19;5.20;;;3.08;;
69573;SDS011;62840;52.366;5.980;2023-07-29T11:10:57;5.60;;;3.22;;
69573;SDS011;62840;52.366;5.980;2023-07-29T11:13:26;6.05;;;2.90;;
69573;SDS011;62840;52.366;5.980;2023-07-29T11:15:53;5.10;;;3.10;;
69573;SDS011;62840;52.366;5.980;2023-07-29T11:18:21;5.63;;;3.50;;
69573;SDS011;62840;52.366;5.980;2023-07-29T11:20:47;5.32;;;3.33;;
69573;SDS011;62840;52.366;5.980;2023-07-29T11:23:13;6.13;;;3.30;;
69573;SDS011;62840;52.366;5.980;2023-07-29T11:25:40;4.70;;;3.20;;
69573;SDS011;62840;52.366;5.980;2023-07-29T11:28:06;5.28;;;3.28;;
69573;SDS011;62840;52.366;5.980;2023-07-29T11:36:56;5.75;;;2.60;;
69573;SDS011;62840;52.366;5.980;2023-07-29T11:39:21;5.05;;;2.95;;
69573;SDS011;62840;52.366;5.980;2023-07-29T11:41:47;5.78;;;3.20;;
69573;SDS011;62840;52.366;5.980;2023-07-29T11:44:16;5.38;;;3.30;;
69573;SDS011;62840;52.366;5.980;2023-07-29T11:46:42;5.40;;;3.10;;
69573;SDS011;62840;52.366;5.980;2023-07-29T11:49:08;5.30;;;3.45;;
69573;SDS011;62840;52.366;5.980;2023-07-29T11:51:34;5.50;;;3.23;;
69573;SDS011;62840;52.366;5.980;2023-07-29T11:54:03;5.50;;;3.33;;
69573;SDS011;62840;52.366;5.980;2023-07-29T11:56:30;4.30;;;3.10;;
69573;SDS011;62840;52.366;5.980;2023-07-29T11:58:57;4.80;;;3.60;;
69573;SDS011;62840;52.366;5.980;2023-07-29T12:01:23;5.18;;;3.38;;
69573;SDS011;62840;52.366;5.980;2023-07-29T12:03:49;5.28;;;3.00;;
69573;SDS011;62840;52.366;5.980;2023-07-29T12:06:16;3.97;;;2.92;;
69573;SDS011;62840;52.366;5.980;2023-07-29T12:08:42;4.90;;;3.40;;
69573;SDS011;62840;52.366;5.980;2023-07-29T12:11:11;5.07;;;3.10;;
69573;SDS011;62840;52.366;5.980;2023-07-29T12:13:39;4.35;;;2.80;;
69573;SDS011;62840;52.366;5.980;2023-07-29T12:16:07;4.75;;;3.10;;
69573;SDS011;62840;52.366;5.980;2023-07-29T12:18:32;6.17;;;3.10;;
69573;SDS011;62840;52.366;5.980;2023-07-29T12:20:58;5.03;;;3.13;;
69573;SDS011;62840;52.366;5.980;2023-07-29T12:23:25;4.65;;;3.08;;
69573;SDS011;62840;52.366;5.980;2023-07-29T12:25:51;4.90;;;2.97;;
69573;SDS011;62840;52.366;5.980;2023-07-29T12:28:24;5.10;;;3.10;;
69573;SDS011;62840;52.366;5.980;2023-07-29T12:30:52;5.43;;;2.80;;
69573;SDS011;62840;52.366;5.980;2023-07-29T12:33:29;4.32;;;2.70;;
69573;SDS011;62840;52.366;5.980;2023-07-29T12:35:55;5.53;;;3.00;;
69573;SDS011;62840;52.366;5.980;2023-07-29T12:38:21;5.23;;;3.40;;
69573;SDS011;62840;52.366;5.980;2023-07-29T12:40:47;4.50;;;2.75;;
69573;SDS011;62840;52.366;5.980;2023-07-29T12:43:13;4.60;;;2.90;;
69573;SDS011;62840;52.366;5.980;2023-07-29T12:45:41;5.47;;;2.33;;
69573;SDS011;62840;52.366;5.980;2023-07-29T12:48:07;4.10;;;2.50;;
69573;SDS011;62840;52.366;5.980;2023-07-29T12:50:33;3.95;;;2.00;;
69573;SDS011;62840;52.366;5.980;2023-07-29T12:52:58;4.13;;;1.70;;
69573;SDS011;62840;52.366;5.980;2023-07-29T12:55:24;3.55;;;1.77;;
69573;SDS011;62840;52.366;5.980;2023-07-29T12:57:50;3.60;;;2.10;;
69573;SDS011;62840;52.366;5.980;2023-07-29T13:00:16;3.20;;;1.60;;
69573;SDS011;62840;52.366;5.980;2023-07-29T13:02:46;4.00;;;1.50;;
69573;SDS011;62840;52.366;5.980;2023-07-29T13:05:12;2.55;;;1.13;;
69573;SDS011;62840;52.366;5.980;2023-07-29T13:07:38;3.03;;;1.20;;
69573;SDS011;62840;52.366;5.980;2023-07-29T13:10:04;2.65;;;1.17;;
69573;SDS011;62840;52.366;5.980;2023-07-29T13:12:31;2.70;;;1.17;;
69573;SDS011;62840;52.366;5.980;2023-07-29T13:14:57;3.47;;;1.10;;
69573;SDS011;62840;52.366;5.980;2023-07-29T13:17:23;3.23;;;1.27;;
69573;SDS011;62840;52.366;5.980;2023-07-29T13:19:53;3.33;;;1.10;;
69573;SDS011;62840;52.366;5.980;2023-07-29T13:22:19;2.80;;;1.35;;
69573;SDS011;62840;52.366;5.980;2023-07-29T13:24:46;2.78;;;1.10;;
69573;SDS011;62840;52.366;5.980;2023-07-29T13:27:12;2.90;;;1.20;;
69573;SDS011;62840;52.366;5.980;2023-07-29T13:29:38;3.33;;;1.38;;
69573;SDS011;62840;52.366;5.980;2023-07-29T13:32:05;3.88;;;1.20;;
69573;SDS011;62840;52.366;5.980;2023-07-29T13:34:32;2.78;;;1.20;;
69573;SDS011;62840;52.366;5.980;2023-07-29T13:37:01;2.60;;;1.10;;
69573;SDS011;62840;52.366;5.980;2023-07-29T13:39:27;2.97;;;1.20;;
69573;SDS011;62840;52.366;5.980;2023-07-29T13:41:52;3.47;;;1.53;;
69573;SDS011;62840;52.366;5.980;2023-07-29T13:44:19;3.40;;;1.30;;
69573;SDS011;62840;52.366;5.980;2023-07-29T13:46:44;3.30;;;1.27;;
69573;SDS011;62840;52.366;5.980;2023-07-29T13:49:10;2.70;;;1.10;;
69573;SDS011;62840;52.366;5.980;2023-07-29T13:51:36;3.40;;;1.33;;
69573;SDS011;62840;52.366;5.980;2023-07-29T13:54:04;3.27;;;1.50;;
69573;SDS011;62840;52.366;5.980;2023-07-29T13:56:30;3.00;;;1.52;;
69573;SDS011;62840;52.366;5.980;2023-07-29T13:58:56;3.80;;;1.77;;
69573;SDS011;62840;52.366;5.980;2023-07-29T14:01:21;3.40;;;1.80;;
69573;SDS011;62840;52.366;5.980;2023-07-29T14:03:47;3.65;;;1.88;;
69573;SDS011;62840;52.366;5.980;2023-07-29T14:06:14;3.53;;;1.60;;
69573;SDS011;62840;52.366;5.980;2023-07-29T14:08:40;4.32;;;1.88;;
69573;SDS011;62840;52.366;5.980;2023-07-29T14:11:08;3.97;;;1.90;;
69573;SDS011;62840;52.366;5.980;2023-07-29T14:13:34;3.80;;;2.17;;
69573;SDS011;62840;52.366;5.980;2023-07-29T14:16:00;3.35;;;1.70;;
69573;SDS011;62840;52.366;5.980;2023-07-29T14:18:26;3.60;;;1.80;;
69573;SDS011;62840;52.366;5.980;2023-07-29T14:20:52;4.43;;;1.77;;
69573;SDS011;62840;52.366;5.980;2023-07-29T14:23:18;3.75;;;1.60;;
69573;SDS011;62840;52.366;5.980;2023-07-29T14:25:43;3.55;;;1.80;;
69573;SDS011;62840;52.366;5.980;2023-07-29T14:28:12;5.07;;;1.83;;
69573;SDS011;62840;52.366;5.980;2023-07-29T14:30:39;3.30;;;1.80;;
69573;SDS011;62840;52.366;5.980;2023-07-29T14:33:05;3.35;;;1.40;;
69573;SDS011;62840;52.366;5.980;2023-07-29T14:35:30;3.50;;;1.73;;
69573;SDS011;62840;52.366;5.980;2023-07-29T14:37:56;3.35;;;1.50;;
69573;SDS011;62840;52.366;5.980;2023-07-29T14:40:22;4.27;;;1.70;;
69573;SDS011;62840;52.366;5.980;2023-07-29T14:42:47;3.28;;;1.70;;
69573;SDS011;62840;52.366;5.980;2023-07-29T14:45:16;3.10;;;1.70;;
69573;SDS011;62840;52.366;5.980;2023-07-29T14:47:42;4.10;;;1.77;;
69573;SDS011;62840;52.366;5.980;2023-07-29T14:50:08;4.03;;;1.60;;
69573;SDS011;62840;52.366;5.980;2023-07-29T14:52:33;3.17;;;1.43;;